Pagrindinis puslapis
METAR-TAF:

METAR-TAF

Oro uostai :

Rivas, Nikaragva

platuma: 11-25N, ilguma: 085-50W, Aukštis: 53 m

Dabartinis oras

Ataskaita buvo paskelbta 1 valandą ir 17 minutes, ne 23:00 UTC
Vėjas 4 kt iš Pietų
Temperatūra 26°C
Drėgmė 94%
Slėgis 1009 hPa
Matomumas 10 km arba daugiau
Mažai debesys ne aukštis 1200 ft, Liūtiniai kamuoliniai debesys.
Išsisklaidę debesys ne aukštis 7000 ft

METAR: MNRS 222300Z 18004KT 9999 FEW012CB SCT070 26/25 Q1009 CB/NE/E/SE/S/SW/W

Laikas: 18:17 (00:17 UTC)


TAF: trūkstamas

Orai ataskaitas ir orų prognozės (METAR, TAF).

turimą stotys yra geltonos ir raudonos taškus žemėlapyje.

Perkelti pele per norėdami pamatyti stoties vardą.

Tada spustelėkite, norėdami matyti oro stebėjimo ir prognozės.

Norėdami pakeisti žemėlapį: spustelėkite ant žalios mygtukų su juodo kryžiaus žemyn,; žalią mygtuką su brūkšneliu, jei norite nutolinti; arba žalių rodyklių gretimoms žemėlapius.


METAR-TAF: